createdAt,value
2019-02-05T00:01:45.948Z,39.00
2019-02-05T00:04:12.573Z,38.90
2019-02-05T00:06:39.261Z,39.00
2019-02-05T00:09:05.842Z,39.00
2019-02-05T00:11:32.671Z,38.90
2019-02-05T00:13:59.252Z,39.00
2019-02-05T00:16:25.829Z,39.00
2019-02-05T00:18:52.461Z,38.90
2019-02-05T00:21:19.117Z,39.00
2019-02-05T00:23:45.701Z,38.90
2019-02-05T00:26:12.539Z,39.00
2019-02-05T00:28:39.124Z,39.00
2019-02-05T00:31:05.778Z,38.90
2019-02-05T00:33:32.705Z,38.90
2019-02-05T00:35:59.291Z,39.00
2019-02-05T00:38:26.460Z,38.90
2019-02-05T00:40:53.096Z,38.90
2019-02-05T00:43:19.684Z,39.00
2019-02-05T00:45:46.423Z,39.00
2019-02-05T00:48:13.045Z,38.90
2019-02-05T00:50:41.631Z,39.00
2019-02-05T00:53:07.931Z,39.00
2019-02-05T00:55:34.558Z,39.00
2019-02-05T00:58:01.536Z,39.00
2019-02-05T01:00:28.146Z,38.90
2019-02-05T01:02:54.761Z,39.00
2019-02-05T01:05:21.336Z,39.00
2019-02-05T01:07:47.927Z,38.90
2019-02-05T01:10:14.736Z,39.00
2019-02-05T01:12:41.327Z,39.00
2019-02-05T01:15:08.713Z,39.00
2019-02-05T01:17:35.343Z,39.00
2019-02-05T01:20:01.922Z,39.00
2019-02-05T01:22:28.608Z,38.90
2019-02-05T01:24:55.250Z,38.90
2019-02-05T01:27:21.892Z,38.90
2019-02-05T01:29:48.471Z,39.00
2019-02-05T01:32:15.421Z,39.00
2019-02-05T01:34:42.283Z,39.00
2019-02-05T01:37:09.066Z,38.90
2019-02-05T01:39:35.694Z,39.00
2019-02-05T01:42:02.277Z,39.00
2019-02-05T01:44:28.935Z,39.00
2019-02-05T01:46:55.558Z,39.00
2019-02-05T01:49:22.192Z,39.00
2019-02-05T01:51:48.806Z,38.90
2019-02-05T01:54:15.778Z,39.00
2019-02-05T01:56:42.579Z,38.90
2019-02-05T01:59:09.190Z,39.00
2019-02-05T02:01:35.865Z,38.90
2019-02-05T02:04:02.448Z,39.00
2019-02-05T02:06:29.034Z,39.00
2019-02-05T02:08:55.660Z,39.00
2019-02-05T02:11:22.824Z,39.00
2019-02-05T02:13:49.408Z,39.00
2019-02-05T02:16:16.149Z,39.00
2019-02-05T02:18:42.742Z,38.90
2019-02-05T02:21:09.316Z,38.90
2019-02-05T02:23:35.949Z,38.90
2019-02-05T02:26:02.596Z,39.00
2019-02-05T02:28:29.223Z,39.00
2019-02-05T02:30:56.326Z,38.90
2019-02-05T02:33:22.916Z,38.90
2019-02-05T02:35:49.491Z,38.90
2019-02-05T02:38:16.192Z,39.00
2019-02-05T02:40:42.778Z,39.00
2019-02-05T02:43:09.354Z,39.00
2019-02-05T02:45:36.069Z,38.90
2019-02-05T02:48:02.913Z,38.90
2019-02-05T02:50:29.769Z,39.00
2019-02-05T02:52:56.407Z,38.90
2019-02-05T02:55:22.983Z,38.90
2019-02-05T02:57:49.562Z,39.00
2019-02-05T03:00:16.260Z,39.00
2019-02-05T03:02:42.894Z,39.00
2019-02-05T03:05:09.556Z,38.90
2019-02-05T03:07:36.460Z,39.00
2019-02-05T03:10:03.331Z,39.00
2019-02-05T03:12:29.908Z,38.90
2019-02-05T03:14:56.527Z,38.90
2019-02-05T03:17:23.115Z,38.90
2019-02-05T03:19:49.738Z,38.90
2019-02-05T03:22:16.609Z,39.00
2019-02-05T03:24:43.275Z,38.90
2019-02-05T03:27:17.238Z,39.00
2019-02-05T03:29:38.402Z,39.00
2019-02-05T03:32:04.985Z,38.90
2019-02-05T03:34:31.737Z,39.00
2019-02-05T03:36:58.576Z,39.00
2019-02-05T03:39:25.163Z,39.00
2019-02-05T03:41:51.807Z,39.00
2019-02-05T03:44:18.466Z,39.00
2019-02-05T03:46:45.132Z,39.00
2019-02-05T03:49:11.712Z,38.90
2019-02-05T03:51:38.516Z,39.00
2019-02-05T03:54:05.102Z,39.00
2019-02-05T03:56:32.400Z,38.90
2019-02-05T03:58:59.043Z,39.00
2019-02-05T04:01:25.619Z,38.90
2019-02-05T04:03:52.202Z,39.00
2019-02-05T04:06:18.829Z,38.90
2019-02-05T04:08:45.410Z,39.00
2019-02-05T04:11:11.992Z,38.90
2019-02-05T04:13:38.802Z,38.90
2019-02-05T04:16:05.382Z,38.90
2019-02-05T04:18:32.143Z,39.00
2019-02-05T04:20:58.772Z,38.90
2019-02-05T04:23:25.357Z,39.00
2019-02-05T04:25:51.941Z,38.90
2019-02-05T04:28:18.573Z,39.00
2019-02-05T04:30:45.242Z,38.90
2019-02-05T04:33:12.297Z,38.90
2019-02-05T04:35:39.128Z,39.00
2019-02-05T04:38:05.728Z,39.00
2019-02-05T04:40:32.370Z,39.00
2019-02-05T04:42:59.037Z,38.90
2019-02-05T04:45:33.677Z,38.90
2019-02-05T04:47:54.229Z,38.90
2019-02-05T04:50:21.739Z,39.00
2019-02-05T04:52:48.908Z,39.00
2019-02-05T04:55:15.504Z,38.90
2019-02-05T04:57:42.230Z,39.00
2019-02-05T05:00:08.822Z,38.90
2019-02-05T05:02:35.408Z,39.00
2019-02-05T05:05:02.044Z,38.90
2019-02-05T05:07:28.665Z,38.90
2019-02-05T05:09:55.246Z,38.90
2019-02-05T05:12:23.615Z,39.00
2019-02-05T05:14:50.194Z,39.00
2019-02-05T05:17:16.808Z,38.90
2019-02-05T05:19:43.466Z,38.90
2019-02-05T05:22:10.052Z,38.90
2019-02-05T05:24:36.704Z,39.00
2019-02-05T05:27:03.448Z,38.90
2019-02-05T05:29:33.085Z,39.00
2019-02-05T05:31:58.325Z,39.00
2019-02-05T05:34:24.949Z,38.90
2019-02-05T05:36:51.713Z,39.00
2019-02-05T05:39:18.320Z,39.00
2019-02-05T05:41:45.117Z,38.90
2019-02-05T05:44:11.688Z,38.90
2019-02-05T05:46:38.455Z,38.90
2019-02-05T05:49:05.130Z,38.90
2019-02-05T05:51:31.709Z,39.00
2019-02-05T05:53:58.481Z,38.90
2019-02-05T05:56:25.149Z,39.00
2019-02-05T05:58:51.742Z,39.00
2019-02-05T06:01:18.319Z,38.90
2019-02-05T06:03:44.947Z,38.90
2019-02-05T06:06:11.542Z,38.90
2019-02-05T06:08:38.195Z,38.90
2019-02-05T06:11:04.833Z,39.00
2019-02-05T06:13:31.419Z,38.90
2019-02-05T06:15:57.990Z,39.00
2019-02-05T06:18:24.685Z,38.90
2019-02-05T06:20:51.256Z,38.90
2019-02-05T06:23:17.831Z,38.90
2019-02-05T06:25:44.454Z,38.90
2019-02-05T06:28:11.172Z,38.90
2019-02-05T06:30:37.805Z,38.90
2019-02-05T06:33:04.524Z,38.90
2019-02-05T06:35:31.693Z,38.90
2019-02-05T06:37:58.482Z,38.90
2019-02-05T06:40:25.384Z,38.90
2019-02-05T06:42:51.965Z,38.90
2019-02-05T06:45:18.541Z,38.90
2019-02-05T06:47:45.397Z,38.90
2019-02-05T06:50:11.963Z,38.90
2019-02-05T06:52:38.540Z,38.80
2019-02-05T06:55:05.189Z,38.90
2019-02-05T06:57:32.050Z,38.90
2019-02-05T06:59:58.627Z,38.90
2019-02-05T07:02:25.276Z,38.90
2019-02-05T07:04:51.854Z,38.90
2019-02-05T07:07:18.450Z,38.90
2019-02-05T07:09:45.324Z,38.90
2019-02-05T07:12:13.015Z,38.90
2019-02-05T07:14:39.679Z,38.80
2019-02-05T07:17:06.967Z,38.80
2019-02-05T07:19:33.659Z,38.90
2019-02-05T07:22:00.257Z,38.90
2019-02-05T07:24:27.307Z,38.90
2019-02-05T07:26:53.941Z,38.90
2019-02-05T07:29:21.896Z,38.80
2019-02-05T07:31:48.533Z,38.80
2019-02-05T07:34:15.294Z,38.90
2019-02-05T07:36:42.248Z,38.90
2019-02-05T07:39:09.356Z,38.80
2019-02-05T07:41:37.968Z,38.90
2019-02-05T07:44:04.322Z,38.80
2019-02-05T07:46:31.063Z,38.90
2019-02-05T07:48:57.642Z,38.90
2019-02-05T07:51:24.267Z,38.80
2019-02-05T07:53:51.254Z,38.80
2019-02-05T07:56:17.901Z,38.80
2019-02-05T07:58:44.916Z,38.90
2019-02-05T08:01:12.045Z,38.90
2019-02-05T08:03:38.680Z,38.80
2019-02-05T08:06:05.261Z,38.90
2019-02-05T08:08:31.968Z,38.90
2019-02-05T08:10:58.555Z,38.80
2019-02-05T08:13:25.198Z,38.90
2019-02-05T08:15:51.933Z,38.80
2019-02-05T08:18:18.900Z,38.80
2019-02-05T08:20:45.543Z,38.90
2019-02-05T08:23:12.177Z,38.90
2019-02-05T08:25:39.158Z,38.90
2019-02-05T08:28:05.807Z,38.80
2019-02-05T08:30:32.498Z,38.90
2019-02-05T08:32:59.109Z,38.90
2019-02-05T08:35:25.695Z,38.80
2019-02-05T08:37:52.433Z,38.80
2019-02-05T08:40:19.101Z,38.80
2019-02-05T08:42:45.677Z,38.80
2019-02-05T08:45:14.246Z,38.90
2019-02-05T08:47:40.729Z,38.90
2019-02-05T08:50:07.696Z,38.90
2019-02-05T08:52:34.340Z,38.90
2019-02-05T08:55:01.017Z,38.90
2019-02-05T08:57:27.706Z,38.90
2019-02-05T08:59:54.438Z,38.90
2019-02-05T09:02:21.016Z,38.90
2019-02-05T09:04:47.649Z,38.90
2019-02-05T09:07:14.349Z,38.90
2019-02-05T09:09:41.519Z,38.90
2019-02-05T09:12:08.099Z,38.90
2019-02-05T09:14:34.732Z,38.90
2019-02-05T09:17:01.376Z,38.90
2019-02-05T09:19:27.949Z,38.90
2019-02-05T09:21:55.153Z,38.90
2019-02-05T09:24:21.806Z,39.00
2019-02-05T09:26:48.460Z,39.00
2019-02-05T09:29:15.403Z,38.90
2019-02-05T09:31:42.360Z,39.00
2019-02-05T09:34:08.936Z,39.00
2019-02-05T09:36:35.557Z,39.00
2019-02-05T09:39:02.243Z,39.00
2019-02-05T09:41:28.898Z,39.00
2019-02-05T09:43:55.552Z,39.00
2019-02-05T09:46:22.169Z,39.00
2019-02-05T09:48:48.901Z,39.00
2019-02-05T09:51:15.524Z,39.00
2019-02-05T09:53:42.391Z,39.00
2019-02-05T09:56:09.043Z,39.00
2019-02-05T09:58:35.745Z,39.00
2019-02-05T10:01:02.313Z,39.00
2019-02-05T10:03:28.899Z,39.00
2019-02-05T10:05:55.693Z,39.00
2019-02-05T10:08:22.463Z,39.00
2019-02-05T10:10:49.123Z,39.00
2019-02-05T10:13:15.831Z,39.00
2019-02-05T10:15:42.688Z,39.00
2019-02-05T10:18:09.263Z,39.10
2019-02-05T10:20:36.012Z,39.10
2019-02-05T10:23:02.587Z,39.10
2019-02-05T10:25:29.487Z,39.10
2019-02-05T10:27:56.233Z,39.10
2019-02-05T10:30:22.883Z,39.10
2019-02-05T10:32:49.556Z,39.20
2019-02-05T10:35:17.447Z,39.20
2019-02-05T10:37:44.060Z,39.20
2019-02-05T10:40:10.714Z,39.20
2019-02-05T10:42:37.347Z,39.30
2019-02-05T10:45:03.932Z,39.30
2019-02-05T10:47:30.512Z,39.30
2019-02-05T10:49:58.440Z,39.30
2019-02-05T10:52:25.011Z,39.40
2019-02-05T10:54:51.594Z,39.40
2019-02-05T10:57:18.703Z,39.50
2019-02-05T10:59:45.286Z,39.50
2019-02-05T11:02:11.943Z,39.50
2019-02-05T11:04:38.588Z,39.60
2019-02-05T11:07:05.186Z,39.70
2019-02-05T11:09:31.922Z,39.70
2019-02-05T11:11:58.580Z,39.80
2019-02-05T11:14:25.236Z,39.80
2019-02-05T11:16:51.891Z,39.90
2019-02-05T11:19:19.108Z,39.90
2019-02-05T11:21:45.775Z,40.00
2019-02-05T11:24:12.450Z,40.10
2019-02-05T11:26:39.071Z,40.10
2019-02-05T11:29:05.753Z,40.20
2019-02-05T11:31:32.589Z,40.30
2019-02-05T11:33:59.332Z,40.30
2019-02-05T11:36:25.905Z,40.40
2019-02-05T11:38:52.485Z,40.50
2019-02-05T11:41:19.482Z,40.50
2019-02-05T11:43:46.138Z,40.60
2019-02-05T11:46:12.721Z,40.70
2019-02-05T11:48:39.430Z,40.80
2019-02-05T11:51:06.140Z,40.80
2019-02-05T11:53:32.875Z,40.90
2019-02-05T11:55:59.618Z,40.90
2019-02-05T11:58:26.192Z,41.00
2019-02-05T12:00:53.175Z,41.10
2019-02-05T12:03:20.085Z,41.10
2019-02-05T12:05:46.747Z,41.20
2019-02-05T12:08:13.433Z,41.30
2019-02-05T12:10:40.090Z,41.30
2019-02-05T12:13:06.716Z,41.40
2019-02-05T12:15:33.374Z,41.50
2019-02-05T12:18:00.174Z,41.50
2019-02-05T12:20:26.991Z,41.60
2019-02-05T12:22:53.636Z,41.70
2019-02-05T12:25:20.541Z,41.70
2019-02-05T12:27:47.125Z,41.80
2019-02-05T12:30:13.711Z,41.80
2019-02-05T12:32:40.338Z,41.80
2019-02-05T12:35:06.953Z,41.90
2019-02-05T12:37:33.619Z,42.00
2019-02-05T12:40:00.610Z,42.00
2019-02-05T12:42:27.246Z,42.10
2019-02-05T12:44:54.205Z,42.00
2019-02-05T12:47:20.834Z,42.10
2019-02-05T12:49:47.476Z,42.10
2019-02-05T12:52:14.111Z,42.20
2019-02-05T12:54:41.857Z,42.20
2019-02-05T12:57:08.450Z,42.20
2019-02-05T12:59:35.062Z,42.20
2019-02-05T13:02:01.706Z,42.20
2019-02-05T13:04:28.298Z,42.30
2019-02-05T13:06:54.874Z,42.30
2019-02-05T13:09:21.518Z,42.30
2019-02-05T13:11:48.097Z,42.40
2019-02-05T13:14:14.687Z,42.40
2019-02-05T13:16:41.300Z,42.40
2019-02-05T13:19:07.877Z,42.40
2019-02-05T13:21:34.459Z,42.40
2019-02-05T13:24:01.877Z,42.40
2019-02-05T13:26:28.480Z,42.40
2019-02-05T13:28:55.069Z,42.50
2019-02-05T13:31:21.803Z,42.50
2019-02-05T13:33:48.383Z,42.50
2019-02-05T13:36:14.971Z,42.50
2019-02-05T13:38:41.815Z,42.50
2019-02-05T13:41:08.591Z,42.60
2019-02-05T13:43:35.453Z,42.60
2019-02-05T13:46:02.227Z,42.60
2019-02-05T13:48:28.879Z,42.70
2019-02-05T13:50:55.577Z,42.70
2019-02-05T13:53:22.201Z,42.70
2019-02-05T13:55:48.774Z,42.70
2019-02-05T13:58:15.351Z,42.70
2019-02-05T14:00:41.996Z,42.70
2019-02-05T14:03:08.949Z,42.80
2019-02-05T14:05:35.533Z,42.80
2019-02-05T14:08:02.242Z,42.80
2019-02-05T14:10:28.824Z,42.80
2019-02-05T14:12:55.502Z,42.80
2019-02-05T14:15:22.111Z,42.80
2019-02-05T14:17:49.760Z,42.80
2019-02-05T14:20:16.344Z,42.80
2019-02-05T14:22:43.410Z,42.80
2019-02-05T14:25:10.074Z,42.80
2019-02-05T14:27:36.647Z,42.80
2019-02-05T14:30:03.326Z,42.80
2019-02-05T14:32:30.794Z,42.80
2019-02-05T14:34:57.567Z,42.80
2019-02-05T14:37:24.255Z,42.80
2019-02-05T14:39:50.830Z,42.80
2019-02-05T14:42:17.751Z,42.80
2019-02-05T14:44:44.383Z,42.80
2019-02-05T14:47:10.959Z,42.70
2019-02-05T14:49:38.334Z,42.70
2019-02-05T14:52:05.059Z,42.70
2019-02-05T14:54:31.688Z,42.70
2019-02-05T14:56:58.254Z,42.70
2019-02-05T14:59:26.286Z,42.60
2019-02-05T15:01:52.871Z,42.60
2019-02-05T15:04:19.442Z,42.60
2019-02-05T15:06:46.065Z,42.50
2019-02-05T15:09:12.644Z,42.50
2019-02-05T15:11:39.251Z,42.50
2019-02-05T15:14:05.898Z,42.40
2019-02-05T15:16:32.482Z,42.40
2019-02-05T15:18:59.239Z,42.30
2019-02-05T15:21:25.856Z,42.30
2019-02-05T15:23:52.456Z,42.30
2019-02-05T15:26:19.023Z,42.30
2019-02-05T15:28:45.717Z,42.20
2019-02-05T15:31:12.450Z,42.20
2019-02-05T15:33:39.036Z,42.20
2019-02-05T15:36:05.718Z,42.10
2019-02-05T15:38:32.351Z,42.10
2019-02-05T15:40:58.941Z,42.10
2019-02-05T15:43:25.564Z,42.10
2019-02-05T15:45:52.148Z,42.00
2019-02-05T15:48:18.720Z,42.00
2019-02-05T15:50:45.366Z,42.00
2019-02-05T15:53:12.202Z,42.00
2019-02-05T15:55:39.154Z,42.00
2019-02-05T15:58:05.793Z,41.90
2019-02-05T16:00:34.633Z,41.90
2019-02-05T16:03:00.693Z,41.80
2019-02-05T16:05:27.321Z,41.90
2019-02-05T16:07:53.901Z,41.80
2019-02-05T16:10:20.482Z,41.70
2019-02-05T16:12:47.276Z,41.70
2019-02-05T16:15:14.142Z,41.70
2019-02-05T16:17:40.734Z,41.60
2019-02-05T16:20:07.409Z,41.60
2019-02-05T16:22:34.001Z,41.60
2019-02-05T16:25:00.584Z,41.50
2019-02-05T16:27:27.366Z,41.50
2019-02-05T16:29:53.968Z,41.50
2019-02-05T16:32:20.540Z,41.50
2019-02-05T16:34:47.641Z,41.40
2019-02-05T16:37:14.220Z,41.40
2019-02-05T16:39:40.799Z,41.30
2019-02-05T16:42:07.447Z,41.30
2019-02-05T16:44:34.026Z,41.30
2019-02-05T16:47:00.638Z,41.30
2019-02-05T16:49:27.298Z,41.20
2019-02-05T16:51:53.975Z,41.20
2019-02-05T16:54:20.938Z,41.20
2019-02-05T16:56:47.608Z,41.10
2019-02-05T16:59:14.259Z,41.20
2019-02-05T17:01:40.832Z,41.10
2019-02-05T17:04:07.457Z,41.00
2019-02-05T17:06:34.039Z,41.00
2019-02-05T17:09:00.614Z,41.00
2019-02-05T17:11:27.243Z,41.00
2019-02-05T17:13:54.401Z,40.90
2019-02-05T17:16:21.004Z,40.90
2019-02-05T17:18:47.716Z,40.90
2019-02-05T17:21:14.288Z,40.90
2019-02-05T17:23:41.097Z,40.80
2019-02-05T17:26:07.732Z,40.80
2019-02-05T17:28:34.303Z,40.80
2019-02-05T17:31:01.006Z,40.70
2019-02-05T17:33:28.085Z,40.70
2019-02-05T17:35:55.005Z,40.70
2019-02-05T17:38:21.594Z,40.70
2019-02-05T17:40:48.274Z,40.70
2019-02-05T17:43:14.918Z,40.60
2019-02-05T17:45:41.488Z,40.60
2019-02-05T17:48:08.129Z,40.60
2019-02-05T17:50:34.828Z,40.60
2019-02-05T17:53:01.780Z,40.60
2019-02-05T17:55:28.421Z,40.50
2019-02-05T17:57:55.008Z,40.50
2019-02-05T18:00:21.582Z,40.50
2019-02-05T18:02:51.523Z,40.50
2019-02-05T18:05:16.570Z,40.50
2019-02-05T18:07:44.264Z,40.40
2019-02-05T18:10:11.310Z,40.40
2019-02-05T18:12:38.026Z,40.40
2019-02-05T18:15:04.610Z,40.40
2019-02-05T18:17:31.231Z,40.30
2019-02-05T18:19:58.813Z,40.30
2019-02-05T18:22:25.391Z,40.30
2019-02-05T18:24:52.312Z,40.30
2019-02-05T18:27:18.895Z,40.30
2019-02-05T18:29:45.968Z,40.20
2019-02-05T18:32:13.263Z,40.20
2019-02-05T18:34:39.853Z,40.20
2019-02-05T18:37:06.428Z,40.20
2019-02-05T18:39:33.071Z,40.10
2019-02-05T18:41:59.664Z,40.20
2019-02-05T18:44:26.251Z,40.10
2019-02-05T18:46:52.910Z,40.10
2019-02-05T18:49:19.495Z,40.10
2019-02-05T18:51:48.236Z,40.10
2019-02-05T18:54:14.892Z,40.10
2019-02-05T18:56:41.467Z,40.10
2019-02-05T18:59:08.054Z,40.10
2019-02-05T19:01:34.673Z,40.00
2019-02-05T19:04:01.370Z,40.00
2019-02-05T19:06:27.945Z,40.00
2019-02-05T19:08:54.768Z,40.00
2019-02-05T19:11:21.352Z,40.00
2019-02-05T19:13:47.946Z,40.00
2019-02-05T19:16:14.606Z,40.00
2019-02-05T19:18:41.183Z,39.90
2019-02-05T19:21:07.781Z,39.90
2019-02-05T19:23:34.608Z,39.90
2019-02-05T19:26:01.194Z,39.90
2019-02-05T19:28:27.883Z,39.90
2019-02-05T19:30:54.517Z,39.90
2019-02-05T19:33:27.202Z,39.80
2019-02-05T19:35:49.735Z,39.90
